sensor_id;sensor_type;location;lat;lon;timestamp;P1;durP1;ratioP1;P2;durP2;ratioP2
35562;SDS011;21665;40.108;18.302;2022-09-09T00:04:58;19.40;;;7.32;;
35562;SDS011;21665;40.108;18.302;2022-09-09T03:06:10;17.05;;;7.22;;
35562;SDS011;21665;40.108;18.302;2022-09-09T03:08:54;15.27;;;6.50;;
35562;SDS011;21665;40.108;18.302;2022-09-09T03:11:46;18.27;;;7.00;;
35562;SDS011;21665;40.108;18.302;2022-09-09T03:14:42;16.48;;;7.55;;
35562;SDS011;21665;40.108;18.302;2022-09-09T06:47:48;17.40;;;5.63;;
35562;SDS011;21665;40.108;18.302;2022-09-09T06:53:32;13.55;;;4.95;;
35562;SDS011;21665;40.108;18.302;2022-09-09T07:58:02;12.13;;;6.78;;
35562;SDS011;21665;40.108;18.302;2022-09-09T08:00:32;16.00;;;7.30;;
35562;SDS011;21665;40.108;18.302;2022-09-09T08:03:09;12.30;;;6.72;;
35562;SDS011;21665;40.108;18.302;2022-09-09T08:05:45;13.32;;;6.40;;
35562;SDS011;21665;40.108;18.302;2022-09-09T08:08:17;14.55;;;7.03;;
35562;SDS011;21665;40.108;18.302;2022-09-09T08:10:45;12.18;;;6.95;;
35562;SDS011;21665;40.108;18.302;2022-09-09T08:13:11;15.23;;;7.07;;
35562;SDS011;21665;40.108;18.302;2022-09-09T08:15:38;11.45;;;7.18;;
35562;SDS011;21665;40.108;18.302;2022-09-09T08:18:06;15.43;;;7.47;;
35562;SDS011;21665;40.108;18.302;2022-09-09T08:20:35;18.02;;;7.13;;
35562;SDS011;21665;40.108;18.302;2022-09-09T08:23:03;13.05;;;7.93;;
35562;SDS011;21665;40.108;18.302;2022-09-09T08:25:30;17.90;;;6.85;;
35562;SDS011;21665;40.108;18.302;2022-09-09T08:27:56;14.38;;;6.90;;
35562;SDS011;21665;40.108;18.302;2022-09-09T08:30:41;13.93;;;7.35;;
35562;SDS011;21665;40.108;18.302;2022-09-09T08:33:18;20.17;;;7.13;;
35562;SDS011;21665;40.108;18.302;2022-09-09T08:35:50;12.85;;;7.10;;
35562;SDS011;21665;40.108;18.302;2022-09-09T08:38:18;17.88;;;7.50;;
35562;SDS011;21665;40.108;18.302;2022-09-09T08:40:45;14.82;;;7.00;;
35562;SDS011;21665;40.108;18.302;2022-09-09T08:43:20;12.52;;;7.10;;
35562;SDS011;21665;40.108;18.302;2022-09-09T08:46:24;16.05;;;7.40;;
35562;SDS011;21665;40.108;18.302;2022-09-09T08:49:06;12.65;;;7.82;;
35562;SDS011;21665;40.108;18.302;2022-09-09T08:51:43;15.05;;;7.60;;
35562;SDS011;21665;40.108;18.302;2022-09-09T08:54:11;14.57;;;7.78;;
35562;SDS011;21665;40.108;18.302;2022-09-09T08:56:40;16.02;;;7.47;;
35562;SDS011;21665;40.108;18.302;2022-09-09T08:59:07;17.85;;;7.40;;
35562;SDS011;21665;40.108;18.302;2022-09-09T09:01:42;19.98;;;7.63;;
35562;SDS011;21665;40.108;18.302;2022-09-09T09:18:48;24.45;;;8.50;;
35562;SDS011;21665;40.108;18.302;2022-09-09T09:24:07;18.00;;;8.70;;
35562;SDS011;21665;40.108;18.302;2022-09-09T09:26:46;19.20;;;8.30;;
35562;SDS011;21665;40.108;18.302;2022-09-09T09:29:17;17.05;;;8.38;;
35562;SDS011;21665;40.108;18.302;2022-09-09T10:55:21;20.75;;;9.68;;
35562;SDS011;21665;40.108;18.302;2022-09-09T10:57:55;16.92;;;9.52;;
35562;SDS011;21665;40.108;18.302;2022-09-09T11:19:38;18.65;;;10.40;;
35562;SDS011;21665;40.108;18.302;2022-09-09T11:22:08;18.27;;;10.02;;
35562;SDS011;21665;40.108;18.302;2022-09-09T11:50:56;19.45;;;10.23;;
35562;SDS011;21665;40.108;18.302;2022-09-09T11:54:44;28.00;;;10.93;;
35562;SDS011;21665;40.108;18.302;2022-09-09T11:57:56;17.90;;;10.45;;
35562;SDS011;21665;40.108;18.302;2022-09-09T12:20:38;23.75;;;10.48;;
35562;SDS011;21665;40.108;18.302;2022-09-09T12:26:47;24.92;;;11.13;;
35562;SDS011;21665;40.108;18.302;2022-09-09T12:55:38;23.48;;;10.95;;
35562;SDS011;21665;40.108;18.302;2022-09-09T13:02:26;19.15;;;10.43;;
35562;SDS011;21665;40.108;18.302;2022-09-09T13:10:24;23.55;;;11.57;;
35562;SDS011;21665;40.108;18.302;2022-09-09T13:13:01;24.45;;;10.55;;
35562;SDS011;21665;40.108;18.302;2022-09-09T13:15:51;19.42;;;9.63;;
35562;SDS011;21665;40.108;18.302;2022-09-09T13:18:41;21.52;;;11.00;;
35562;SDS011;21665;40.108;18.302;2022-09-09T13:27:34;24.25;;;10.93;;
35562;SDS011;21665;40.108;18.302;2022-09-09T13:33:05;18.63;;;10.15;;
35562;SDS011;21665;40.108;18.302;2022-09-09T14:30:17;20.00;;;10.18;;
35562;SDS011;21665;40.108;18.302;2022-09-09T14:33:45;18.45;;;11.13;;
35562;SDS011;21665;40.108;18.302;2022-09-09T14:55:00;21.73;;;9.65;;
35562;SDS011;21665;40.108;18.302;2022-09-09T14:57:40;27.38;;;9.98;;
35562;SDS011;21665;40.108;18.302;2022-09-09T15:01:13;17.15;;;9.20;;
35562;SDS011;21665;40.108;18.302;2022-09-09T15:03:52;22.88;;;9.98;;
35562;SDS011;21665;40.108;18.302;2022-09-09T15:10:07;26.77;;;10.27;;
35562;SDS011;21665;40.108;18.302;2022-09-09T15:12:37;24.70;;;9.60;;
35562;SDS011;21665;40.108;18.302;2022-09-09T15:15:04;21.73;;;10.32;;
35562;SDS011;21665;40.108;18.302;2022-09-09T15:17:32;25.75;;;10.25;;
35562;SDS011;21665;40.108;18.302;2022-09-09T15:19:59;22.60;;;10.27;;
35562;SDS011;21665;40.108;18.302;2022-09-09T15:22:25;23.40;;;10.27;;
35562;SDS011;21665;40.108;18.302;2022-09-09T15:24:53;28.08;;;10.40;;
35562;SDS011;21665;40.108;18.302;2022-09-09T15:27:19;19.88;;;9.75;;
35562;SDS011;21665;40.108;18.302;2022-09-09T15:29:46;24.08;;;9.80;;
35562;SDS011;21665;40.108;18.302;2022-09-09T15:32:12;24.23;;;10.32;;
35562;SDS011;21665;40.108;18.302;2022-09-09T15:34:39;24.17;;;9.85;;
35562;SDS011;21665;40.108;18.302;2022-09-09T15:37:06;23.63;;;9.65;;
35562;SDS011;21665;40.108;18.302;2022-09-09T15:39:36;22.50;;;8.52;;
35562;SDS011;21665;40.108;18.302;2022-09-09T15:42:06;24.52;;;8.80;;
35562;SDS011;21665;40.108;18.302;2022-09-09T15:44:41;21.73;;;9.02;;
35562;SDS011;21665;40.108;18.302;2022-09-09T15:47:10;20.75;;;8.98;;
35562;SDS011;21665;40.108;18.302;2022-09-09T15:49:38;20.33;;;8.80;;
35562;SDS011;21665;40.108;18.302;2022-09-09T15:52:05;30.77;;;9.40;;
35562;SDS011;21665;40.108;18.302;2022-09-09T15:54:32;29.48;;;9.15;;
35562;SDS011;21665;40.108;18.302;2022-09-09T15:57:01;27.20;;;9.02;;
35562;SDS011;21665;40.108;18.302;2022-09-09T15:59:30;24.20;;;9.18;;
35562;SDS011;21665;40.108;18.302;2022-09-09T16:01:59;20.88;;;8.70;;
35562;SDS011;21665;40.108;18.302;2022-09-09T16:04:27;18.83;;;8.68;;
35562;SDS011;21665;40.108;18.302;2022-09-09T16:06:58;17.90;;;8.30;;
35562;SDS011;21665;40.108;18.302;2022-09-09T16:09:29;20.55;;;8.18;;
35562;SDS011;21665;40.108;18.302;2022-09-09T16:11:57;24.10;;;7.85;;
35562;SDS011;21665;40.108;18.302;2022-09-09T16:14:26;23.05;;;8.95;;
35562;SDS011;21665;40.108;18.302;2022-09-09T16:16:53;26.52;;;9.40;;
35562;SDS011;21665;40.108;18.302;2022-09-09T16:19:20;23.65;;;9.05;;
35562;SDS011;21665;40.108;18.302;2022-09-09T16:21:48;23.67;;;9.15;;
35562;SDS011;21665;40.108;18.302;2022-09-09T16:24:17;24.25;;;8.50;;
35562;SDS011;21665;40.108;18.302;2022-09-09T16:26:50;32.20;;;8.27;;
35562;SDS011;21665;40.108;18.302;2022-09-09T16:29:20;34.08;;;9.07;;
35562;SDS011;21665;40.108;18.302;2022-09-09T16:31:48;17.80;;;9.07;;
35562;SDS011;21665;40.108;18.302;2022-09-09T16:34:16;25.25;;;8.07;;
35562;SDS011;21665;40.108;18.302;2022-09-09T16:36:44;21.13;;;8.38;;
35562;SDS011;21665;40.108;18.302;2022-09-09T16:39:12;19.45;;;9.05;;
35562;SDS011;21665;40.108;18.302;2022-09-09T16:41:41;25.85;;;9.18;;
35562;SDS011;21665;40.108;18.302;2022-09-09T16:44:11;22.38;;;8.65;;
35562;SDS011;21665;40.108;18.302;2022-09-09T16:46:41;27.38;;;8.63;;
35562;SDS011;21665;40.108;18.302;2022-09-09T16:49:10;24.65;;;9.38;;
35562;SDS011;21665;40.108;18.302;2022-09-09T16:51:41;42.33;;;10.75;;
35562;SDS011;21665;40.108;18.302;2022-09-09T16:54:11;24.98;;;10.57;;
35562;SDS011;21665;40.108;18.302;2022-09-09T16:56:40;37.90;;;9.95;;
35562;SDS011;21665;40.108;18.302;2022-09-09T16:59:13;32.40;;;9.45;;
35562;SDS011;21665;40.108;18.302;2022-09-09T17:01:43;33.30;;;9.77;;
35562;SDS011;21665;40.108;18.302;2022-09-09T17:04:12;23.20;;;9.23;;
35562;SDS011;21665;40.108;18.302;2022-09-09T17:06:45;37.60;;;10.23;;
35562;SDS011;21665;40.108;18.302;2022-09-09T17:09:13;35.90;;;10.20;;
35562;SDS011;21665;40.108;18.302;2022-09-09T17:11:40;25.67;;;9.43;;
35562;SDS011;21665;40.108;18.302;2022-09-09T17:14:07;25.85;;;9.68;;
35562;SDS011;21665;40.108;18.302;2022-09-09T17:16:37;24.67;;;9.43;;
35562;SDS011;21665;40.108;18.302;2022-09-09T17:19:05;21.17;;;9.35;;
35562;SDS011;21665;40.108;18.302;2022-09-09T17:21:34;29.05;;;10.13;;
35562;SDS011;21665;40.108;18.302;2022-09-09T17:24:01;26.23;;;9.32;;
35562;SDS011;21665;40.108;18.302;2022-09-09T17:26:29;27.33;;;9.40;;
35562;SDS011;21665;40.108;18.302;2022-09-09T17:29:02;27.00;;;8.90;;
35562;SDS011;21665;40.108;18.302;2022-09-09T17:31:30;29.38;;;8.95;;
35562;SDS011;21665;40.108;18.302;2022-09-09T17:33:59;30.02;;;9.07;;
35562;SDS011;21665;40.108;18.302;2022-09-09T17:36:28;32.17;;;9.43;;
35562;SDS011;21665;40.108;18.302;2022-09-09T17:38:58;29.13;;;9.48;;
35562;SDS011;21665;40.108;18.302;2022-09-09T17:41:26;34.08;;;9.70;;
35562;SDS011;21665;40.108;18.302;2022-09-09T17:43:55;33.25;;;10.68;;
35562;SDS011;21665;40.108;18.302;2022-09-09T17:46:24;32.65;;;9.77;;
35562;SDS011;21665;40.108;18.302;2022-09-09T17:48:57;30.17;;;8.93;;
35562;SDS011;21665;40.108;18.302;2022-09-09T17:51:27;35.08;;;9.95;;
35562;SDS011;21665;40.108;18.302;2022-09-09T17:53:57;24.17;;;9.75;;
35562;SDS011;21665;40.108;18.302;2022-09-09T17:56:27;25.95;;;9.70;;
35562;SDS011;21665;40.108;18.302;2022-09-09T17:59:00;33.90;;;9.35;;
35562;SDS011;21665;40.108;18.302;2022-09-09T18:01:29;27.52;;;10.23;;
35562;SDS011;21665;40.108;18.302;2022-09-09T18:03:59;26.67;;;9.75;;
35562;SDS011;21665;40.108;18.302;2022-09-09T18:06:31;31.38;;;10.48;;
35562;SDS011;21665;40.108;18.302;2022-09-09T18:09:01;27.17;;;10.32;;
35562;SDS011;21665;40.108;18.302;2022-09-09T18:11:39;31.42;;;10.30;;
35562;SDS011;21665;40.108;18.302;2022-09-09T18:14:10;32.03;;;9.98;;
35562;SDS011;21665;40.108;18.302;2022-09-09T18:16:40;29.92;;;10.30;;
35562;SDS011;21665;40.108;18.302;2022-09-09T18:19:07;30.80;;;9.55;;
35562;SDS011;21665;40.108;18.302;2022-09-09T18:21:38;34.20;;;9.48;;
35562;SDS011;21665;40.108;18.302;2022-09-09T18:24:06;30.20;;;10.18;;
35562;SDS011;21665;40.108;18.302;2022-09-09T18:26:35;32.58;;;8.60;;
35562;SDS011;21665;40.108;18.302;2022-09-09T18:29:03;29.23;;;10.15;;
35562;SDS011;21665;40.108;18.302;2022-09-09T18:31:32;28.42;;;8.60;;
35562;SDS011;21665;40.108;18.302;2022-09-09T18:34:00;40.78;;;10.45;;
35562;SDS011;21665;40.108;18.302;2022-09-09T18:36:29;39.15;;;9.75;;
35562;SDS011;21665;40.108;18.302;2022-09-09T18:38:59;28.73;;;8.88;;
35562;SDS011;21665;40.108;18.302;2022-09-09T18:41:32;34.70;;;10.18;;
35562;SDS011;21665;40.108;18.302;2022-09-09T18:44:02;37.63;;;10.32;;
35562;SDS011;21665;40.108;18.302;2022-09-09T18:46:31;27.17;;;9.10;;
35562;SDS011;21665;40.108;18.302;2022-09-09T18:48:59;24.10;;;9.23;;
35562;SDS011;21665;40.108;18.302;2022-09-09T18:51:27;26.60;;;9.25;;
35562;SDS011;21665;40.108;18.302;2022-09-09T18:53:55;25.70;;;8.75;;
35562;SDS011;21665;40.108;18.302;2022-09-09T18:56:23;30.88;;;9.30;;
35562;SDS011;21665;40.108;18.302;2022-09-09T18:58:54;34.20;;;9.52;;
35562;SDS011;21665;40.108;18.302;2022-09-09T19:01:23;29.48;;;9.32;;
35562;SDS011;21665;40.108;18.302;2022-09-09T19:03:51;29.08;;;9.90;;
35562;SDS011;21665;40.108;18.302;2022-09-09T19:06:20;27.33;;;8.73;;
35562;SDS011;21665;40.108;18.302;2022-09-09T19:08:49;25.60;;;9.90;;
35562;SDS011;21665;40.108;18.302;2022-09-09T19:11:26;24.52;;;10.00;;
35562;SDS011;21665;40.108;18.302;2022-09-09T19:13:57;33.95;;;10.32;;
35562;SDS011;21665;40.108;18.302;2022-09-09T19:16:26;34.13;;;9.65;;
35562;SDS011;21665;40.108;18.302;2022-09-09T19:18:54;30.67;;;10.30;;
35562;SDS011;21665;40.108;18.302;2022-09-09T19:21:25;38.38;;;10.43;;
35562;SDS011;21665;40.108;18.302;2022-09-09T19:23:56;44.58;;;11.43;;
35562;SDS011;21665;40.108;18.302;2022-09-09T19:26:27;42.67;;;10.50;;
35562;SDS011;21665;40.108;18.302;2022-09-09T19:28:57;29.70;;;9.73;;
35562;SDS011;21665;40.108;18.302;2022-09-09T19:31:24;40.03;;;10.65;;
35562;SDS011;21665;40.108;18.302;2022-09-09T19:33:52;35.33;;;9.50;;
35562;SDS011;21665;40.108;18.302;2022-09-09T19:36:23;30.83;;;11.05;;
35562;SDS011;21665;40.108;18.302;2022-09-09T19:38:59;41.95;;;11.65;;
35562;SDS011;21665;40.108;18.302;2022-09-09T19:41:28;39.78;;;10.85;;
35562;SDS011;21665;40.108;18.302;2022-09-09T19:43:59;30.85;;;11.13;;
35562;SDS011;21665;40.108;18.302;2022-09-09T19:46:28;32.33;;;11.55;;
35562;SDS011;21665;40.108;18.302;2022-09-09T19:48:55;29.42;;;10.60;;
35562;SDS011;21665;40.108;18.302;2022-09-09T19:51:23;34.83;;;11.85;;
35562;SDS011;21665;40.108;18.302;2022-09-09T19:53:52;32.83;;;11.25;;
35562;SDS011;21665;40.108;18.302;2022-09-09T19:56:26;35.45;;;12.30;;
35562;SDS011;21665;40.108;18.302;2022-09-09T19:58:54;36.08;;;11.43;;
35562;SDS011;21665;40.108;18.302;2022-09-09T20:01:23;35.17;;;10.90;;
35562;SDS011;21665;40.108;18.302;2022-09-09T20:04:01;31.80;;;10.57;;
35562;SDS011;21665;40.108;18.302;2022-09-09T20:06:30;41.58;;;12.27;;
35562;SDS011;21665;40.108;18.302;2022-09-09T20:09:00;38.78;;;13.40;;
35562;SDS011;21665;40.108;18.302;2022-09-09T20:11:28;33.17;;;12.82;;
35562;SDS011;21665;40.108;18.302;2022-09-09T20:13:55;37.17;;;11.38;;
35562;SDS011;21665;40.108;18.302;2022-09-09T20:16:23;33.35;;;11.45;;
35562;SDS011;21665;40.108;18.302;2022-09-09T20:18:55;37.25;;;10.70;;
35562;SDS011;21665;40.108;18.302;2022-09-09T20:21:26;40.72;;;12.32;;
35562;SDS011;21665;40.108;18.302;2022-09-09T20:23:59;32.65;;;10.32;;
35562;SDS011;21665;40.108;18.302;2022-09-09T20:26:27;37.45;;;11.07;;
35562;SDS011;21665;40.108;18.302;2022-09-09T20:28:58;24.63;;;10.15;;
35562;SDS011;21665;40.108;18.302;2022-09-09T20:31:35;31.92;;;10.40;;
35562;SDS011;21665;40.108;18.302;2022-09-09T20:34:06;38.58;;;10.95;;
35562;SDS011;21665;40.108;18.302;2022-09-09T20:36:38;30.90;;;11.32;;
35562;SDS011;21665;40.108;18.302;2022-09-09T20:39:07;36.53;;;11.05;;
35562;SDS011;21665;40.108;18.302;2022-09-09T20:41:38;29.98;;;10.00;;
35562;SDS011;21665;40.108;18.302;2022-09-09T20:44:07;31.65;;;9.73;;
35562;SDS011;21665;40.108;18.302;2022-09-09T20:46:54;34.95;;;10.75;;
35562;SDS011;21665;40.108;18.302;2022-09-09T20:49:29;42.25;;;10.35;;
35562;SDS011;21665;40.108;18.302;2022-09-09T20:51:55;35.80;;;11.90;;
35562;SDS011;21665;40.108;18.302;2022-09-09T20:54:22;32.65;;;11.10;;
35562;SDS011;21665;40.108;18.302;2022-09-09T20:56:53;36.20;;;11.90;;
35562;SDS011;21665;40.108;18.302;2022-09-09T20:59:23;35.10;;;11.50;;
35562;SDS011;21665;40.108;18.302;2022-09-09T21:01:52;33.42;;;10.65;;
35562;SDS011;21665;40.108;18.302;2022-09-09T21:04:21;41.45;;;12.07;;
35562;SDS011;21665;40.108;18.302;2022-09-09T21:06:49;41.97;;;12.38;;
35562;SDS011;21665;40.108;18.302;2022-09-09T21:09:16;30.52;;;10.45;;
35562;SDS011;21665;40.108;18.302;2022-09-09T21:11:43;33.60;;;11.10;;
35562;SDS011;21665;40.108;18.302;2022-09-09T21:14:12;33.28;;;11.40;;
35562;SDS011;21665;40.108;18.302;2022-09-09T21:16:39;42.42;;;12.52;;
35562;SDS011;21665;40.108;18.302;2022-09-09T21:19:09;26.05;;;10.93;;
35562;SDS011;21665;40.108;18.302;2022-09-09T21:21:35;35.78;;;11.23;;
35562;SDS011;21665;40.108;18.302;2022-09-09T21:24:02;32.28;;;11.50;;
35562;SDS011;21665;40.108;18.302;2022-09-09T21:26:29;31.33;;;10.60;;
35562;SDS011;21665;40.108;18.302;2022-09-09T21:28:56;33.30;;;11.65;;
35562;SDS011;21665;40.108;18.302;2022-09-09T21:31:22;37.05;;;10.40;;
35562;SDS011;21665;40.108;18.302;2022-09-09T21:33:50;43.83;;;11.75;;
35562;SDS011;21665;40.108;18.302;2022-09-09T21:36:16;38.92;;;11.48;;
35562;SDS011;21665;40.108;18.302;2022-09-09T21:38:43;35.67;;;11.32;;
35562;SDS011;21665;40.108;18.302;2022-09-09T21:41:11;32.92;;;11.13;;
35562;SDS011;21665;40.108;18.302;2022-09-09T21:43:43;32.40;;;11.63;;
35562;SDS011;21665;40.108;18.302;2022-09-09T21:46:12;38.28;;;10.85;;
35562;SDS011;21665;40.108;18.302;2022-09-09T21:48:41;38.22;;;11.85;;
35562;SDS011;21665;40.108;18.302;2022-09-09T21:51:09;39.75;;;11.98;;
35562;SDS011;21665;40.108;18.302;2022-09-09T21:53:39;29.55;;;10.93;;
35562;SDS011;21665;40.108;18.302;2022-09-09T21:56:08;35.67;;;10.52;;
35562;SDS011;21665;40.108;18.302;2022-09-09T21:58:36;38.17;;;10.90;;
35562;SDS011;21665;40.108;18.302;2022-09-09T22:01:12;33.00;;;10.75;;
35562;SDS011;21665;40.108;18.302;2022-09-09T22:03:41;35.55;;;11.52;;
35562;SDS011;21665;40.108;18.302;2022-09-09T22:06:09;27.02;;;10.82;;
35562;SDS011;21665;40.108;18.302;2022-09-09T22:08:38;37.35;;;11.60;;
35562;SDS011;21665;40.108;18.302;2022-09-09T22:11:06;37.55;;;9.90;;
35562;SDS011;21665;40.108;18.302;2022-09-09T22:13:35;32.85;;;9.98;;
35562;SDS011;21665;40.108;18.302;2022-09-09T22:16:03;30.02;;;11.77;;
35562;SDS011;21665;40.108;18.302;2022-09-09T22:18:32;33.13;;;11.32;;
35562;SDS011;21665;40.108;18.302;2022-09-09T22:21:03;31.40;;;10.10;;
35562;SDS011;21665;40.108;18.302;2022-09-09T22:23:35;31.88;;;10.65;;
35562;SDS011;21665;40.108;18.302;2022-09-09T22:26:02;43.35;;;12.70;;
35562;SDS011;21665;40.108;18.302;2022-09-09T22:28:30;29.85;;;11.80;;
35562;SDS011;21665;40.108;18.302;2022-09-09T22:30:57;31.25;;;11.77;;
35562;SDS011;21665;40.108;18.302;2022-09-09T22:33:23;27.20;;;11.60;;
35562;SDS011;21665;40.108;18.302;2022-09-09T22:35:52;41.25;;;11.73;;
35562;SDS011;21665;40.108;18.302;2022-09-09T22:38:19;36.25;;;11.80;;
35562;SDS011;21665;40.108;18.302;2022-09-09T22:40:50;33.35;;;10.95;;
35562;SDS011;21665;40.108;18.302;2022-09-09T22:43:19;34.30;;;11.35;;
35562;SDS011;21665;40.108;18.302;2022-09-09T22:45:47;35.78;;;11.43;;
35562;SDS011;21665;40.108;18.302;2022-09-09T22:48:15;34.63;;;12.25;;
35562;SDS011;21665;40.108;18.302;2022-09-09T22:50:42;34.78;;;12.07;;
35562;SDS011;21665;40.108;18.302;2022-09-09T22:53:16;39.50;;;12.02;;
35562;SDS011;21665;40.108;18.302;2022-09-09T22:55:57;42.13;;;13.13;;
35562;SDS011;21665;40.108;18.302;2022-09-09T22:58:27;36.15;;;11.88;;
35562;SDS011;21665;40.108;18.302;2022-09-09T23:00:56;34.15;;;11.90;;
35562;SDS011;21665;40.108;18.302;2022-09-09T23:03:27;33.30;;;11.52;;
35562;SDS011;21665;40.108;18.302;2022-09-09T23:05:58;27.88;;;10.68;;
35562;SDS011;21665;40.108;18.302;2022-09-09T23:08:30;32.65;;;10.73;;
35562;SDS011;21665;40.108;18.302;2022-09-09T23:10:59;37.25;;;12.27;;
35562;SDS011;21665;40.108;18.302;2022-09-09T23:13:57;30.63;;;11.13;;
35562;SDS011;21665;40.108;18.302;2022-09-09T23:16:28;41.78;;;12.10;;
35562;SDS011;21665;40.108;18.302;2022-09-09T23:19:01;29.70;;;10.95;;
35562;SDS011;21665;40.108;18.302;2022-09-09T23:21:28;38.90;;;13.35;;
35562;SDS011;21665;40.108;18.302;2022-09-09T23:29:26;35.22;;;11.48;;
